Time;durP1;ratioP1;P1;durP2;ratioP2;P2;SDS_P1;SDS_P2;PMS_P1;PMS_P2;Temp;Humidity;BMP_temperature;BMP_pressure;BME280_temperature;BME280_humidity;BME280_pressure;Samples;Min_cycle;Max_cycle;Signal;HPM_P1;HPM_P2
2022/09/25 00:00:28;;;;;;;4.77;3.73;;;;;;;9.01;93.32;97385.41;6255646;28;20443;-42
2022/09/25 00:03:31;;;;;;;3.93;3.07;;;;;;;9.03;93.87;97385.28;6256928;28;20228;-41
2022/09/25 00:06:33;;;;;;;4.23;3.70;;;;;;;9.06;93.71;97385.03;6231809;28;20231;-40
2022/09/25 00:09:34;;;;;;;3.77;3.47;;;;;;;9.09;93.74;97390.03;6252762;28;20231;-42
2022/09/25 00:12:37;;;;;;;3.70;3.40;;;;;;;9.16;93.56;97386.84;6256656;28;20232;-41
2022/09/25 00:15:48;;;;;;;4.20;3.50;;;;;;;9.19;93.85;97383.09;6255282;28;20223;-41
2022/09/25 00:22:11;;;;;;;4.30;3.27;;;;;;;9.27;93.90;97382.50;6256220;28;20319;-42
2022/09/25 00:25:14;;;;;;;3.63;3.33;;;;;;;9.27;93.55;97380.72;6255952;28;20812;-42
2022/09/25 00:28:16;;;;;;;4.23;3.90;;;;;;;9.24;94.13;97373.88;6255543;28;20224;-41
2022/09/25 00:31:24;;;;;;;3.40;3.10;;;;;;;9.23;93.34;97374.84;6255445;28;20227;-41
2022/09/25 00:34:26;;;;;;;3.53;3.17;;;;;;;9.27;93.64;97374.59;6255561;28;20322;-42
2022/09/25 00:37:28;;;;;;;4.50;3.50;;;;;;;9.29;93.87;97370.88;6255148;28;20238;-40
2022/09/25 00:40:30;;;;;;;4.43;3.47;;;;;;;9.30;93.67;97364.66;6255015;28;20599;-42
2022/09/25 00:43:39;;;;;;;4.00;3.60;;;;;;;9.30;93.87;97369.91;6254862;28;20285;-41
2022/09/25 00:46:43;;;;;;;4.10;3.60;;;;;;;9.30;93.81;97374.34;6255861;28;20268;-42
2022/09/25 00:49:46;;;;;;;3.93;3.53;;;;;;;9.31;93.50;97376.03;6255626;28;20639;-41
2022/09/25 00:52:52;;;;;;;3.97;3.40;;;;;;;9.32;93.47;97380.31;6254739;28;20524;-40
2022/09/25 00:55:55;;;;;;;3.93;3.20;;;;;;;9.31;93.90;97371.59;6255478;28;20232;-40
2022/09/25 00:58:58;;;;;;;4.77;3.30;;;;;;;9.32;93.79;97370.63;6254914;28;20223;-41
2022/09/25 01:02:00;;;;;;;5.53;3.50;;;;;;;9.32;94.26;97365.38;6255288;28;20228;-40
2022/09/25 01:05:07;;;;;;;3.63;3.33;;;;;;;9.31;93.56;97371.59;6255249;28;20816;-41
2022/09/25 01:08:18;;;;;;;4.13;3.63;;;;;;;9.34;94.06;97371.34;6253939;28;20264;-40
2022/09/25 01:11:20;;;;;;;3.83;3.40;;;;;;;9.31;93.66;97366.31;6254130;28;20231;-41
2022/09/25 01:14:22;;;;;;;5.43;3.87;;;;;;;9.25;94.22;97357.13;6254286;28;20602;-41
2022/09/25 01:17:39;;;;;;;4.97;4.00;;;;;;;9.23;93.92;97359.03;6254684;28;20232;-40
2022/09/25 01:21:05;;;;;;;4.17;3.77;;;;;;;9.23;94.49;97359.03;6241593;28;20229;-40
2022/09/25 01:24:29;;;;;;;3.97;3.57;;;;;;;9.20;93.83;97359.28;6242036;28;20224;-43
2022/09/25 01:27:48;;;;;;;4.03;3.70;;;;;;;9.19;94.14;97359.41;6254379;28;20249;-41
2022/09/25 01:30:57;;;;;;;3.53;3.23;;;;;;;9.15;94.31;97356.19;6252388;28;20236;-40
2022/09/25 01:34:11;;;;;;;4.10;3.70;;;;;;;9.15;93.81;97355.34;6254323;28;20230;-41
2022/09/25 01:37:16;;;;;;;4.83;4.20;;;;;;;9.14;94.75;97361.56;6254091;28;20231;-40
2022/09/25 01:40:36;;;;;;;3.70;3.40;;;;;;;9.11;93.81;97353.91;6253822;28;20234;-43
2022/09/25 01:43:47;;;;;;;5.37;3.97;;;;;;;9.12;94.54;97355.59;6253788;28;20273;-40
2022/09/25 01:46:54;;;;;;;3.50;3.20;;;;;;;9.08;93.88;97343.66;6255907;28;20227;-40
2022/09/25 01:50:03;;;;;;;4.10;3.70;;;;;;;9.04;93.82;97342.22;6249078;28;20605;-41
2022/09/25 01:53:13;;;;;;;3.73;3.43;;;;;;;9.04;94.32;97350.94;6254311;28;20232;-42
2022/09/25 01:56:31;;;;;;;5.27;4.10;;;;;;;9.08;94.54;97354.19;6254587;28;20239;-40
2022/09/25 01:59:53;;;;;;;4.33;3.93;;;;;;;9.12;94.18;97363.50;6253927;28;20305;-40
2022/09/25 02:03:05;;;;;;;3.90;3.50;;;;;;;9.15;94.56;97358.81;6251797;28;20720;-40
2022/09/25 02:06:12;;;;;;;4.17;3.77;;;;;;;9.16;94.39;97367.56;6253779;28;20216;-40
2022/09/25 02:09:28;;;;;;;4.20;3.80;;;;;;;9.18;94.65;97373.56;6252441;28;20578;-40
2022/09/25 02:12:36;;;;;;;3.60;3.30;;;;;;;9.18;93.99;97368.28;6253976;28;20260;-42
2022/09/25 02:15:48;;;;;;;3.90;3.60;;;;;;;9.17;94.27;97361.34;6253971;28;20609;-40
2022/09/25 02:22:27;;;;;;;4.10;3.60;;;;;;;9.14;94.80;97361.56;6252657;28;20266;-40
2022/09/25 02:25:55;;;;;;;4.03;3.60;;;;;;;9.15;94.21;97358.81;6253402;28;20233;-40
2022/09/25 02:28:59;;;;;;;4.13;3.73;;;;;;;9.15;94.21;97355.34;6252007;28;20221;-40
2022/09/25 02:32:08;;;;;;;6.70;4.07;;;;;;;9.11;94.11;97353.91;6252698;28;20231;-41
2022/09/25 02:35:10;;;;;;;4.03;3.63;;;;;;;9.10;94.48;97354.88;6254178;28;20224;-40
2022/09/25 02:38:13;;;;;;;4.20;3.90;;;;;;;9.11;94.89;97356.53;6253510;28;20308;-41
2022/09/25 02:41:34;;;;;;;4.20;3.80;;;;;;;9.15;94.14;97360.63;6253120;28;20236;-40
2022/09/25 02:44:50;;;;;;;3.83;3.50;;;;;;;9.13;94.73;97363.38;6261092;28;20610;-41
2022/09/25 02:48:24;;;;;;;4.70;4.27;;;;;;;9.14;94.71;97362.41;6257900;28;20235;-39
2022/09/25 02:51:43;;;;;;;4.47;4.07;;;;;;;9.15;94.72;97353.56;6257181;28;20447;-40
2022/09/25 02:54:54;;;;;;;4.97;4.47;;;;;;;9.11;94.74;97359.19;6257299;28;20233;-40
2022/09/25 02:58:08;;;;;;;4.43;4.00;;;;;;;9.04;94.83;97355.38;6257247;28;20228;-40
2022/09/25 03:01:15;;;;;;;4.43;4.03;;;;;;;9.00;95.11;97362.66;6257834;28;20265;-40
2022/09/25 03:04:18;;;;;;;3.70;3.40;;;;;;;8.99;95.20;97368.03;6258547;28;20260;-40
2022/09/25 03:07:21;;;;;;;4.43;3.97;;;;;;;9.00;94.86;97374.97;6256751;28;20708;-40
2022/09/25 03:10:24;;;;;;;4.47;4.07;;;;;;;8.98;95.40;97369.03;6257448;28;20339;-40
2022/09/25 03:13:30;;;;;;;5.27;4.70;;;;;;;8.97;95.11;97372.63;6257014;28;20238;-40
2022/09/25 03:16:39;;;;;;;4.77;4.13;;;;;;;8.97;96.08;97372.63;6257719;28;20585;-40
2022/09/25 03:19:41;;;;;;;4.57;4.17;;;;;;;8.91;95.07;97368.66;6256251;28;20241;-40
2022/09/25 03:22:43;;;;;;;4.70;4.30;;;;;;;8.89;95.77;97360.03;6258481;28;20447;-40
2022/09/25 03:25:46;;;;;;;4.90;4.27;;;;;;;8.88;95.73;97356.56;6257385;28;20235;-40
2022/09/25 03:28:52;;;;;;;5.07;4.43;;;;;;;8.86;95.77;97352.41;6256578;28;20235;-40
2022/09/25 03:31:54;;;;;;;5.00;4.60;;;;;;;8.80;95.35;97355.50;6256377;28;20719;-40
2022/09/25 03:34:56;;;;;;;4.90;4.40;;;;;;;8.78;95.55;97355.59;6256379;28;20274;-41
2022/09/25 03:37:58;;;;;;;5.77;5.23;;;;;;;8.80;95.59;97350.22;6256757;28;20600;-40
2022/09/25 03:41:01;;;;;;;5.90;5.30;;;;;;;8.80;96.02;97340.53;6256333;28;20227;-41
2022/09/25 03:44:03;;;;;;;5.43;4.87;;;;;;;8.79;95.37;97338.03;6256407;28;20248;-40
2022/09/25 03:47:05;;;;;;;7.63;5.57;;;;;;;8.76;95.97;97331.25;6256592;28;20728;-40
2022/09/25 03:50:08;;;;;;;6.83;5.60;;;;;;;8.74;96.22;97325.25;6257644;28;20227;-39
2022/09/25 03:53:09;;;;;;;7.40;6.10;;;;;;;8.75;95.77;97340.09;6257012;28;20228;-39
2022/09/25 03:56:14;;;;;;;6.83;5.73;;;;;;;8.79;96.08;97338.88;6256384;28;20653;-40
2022/09/25 03:59:16;;;;;;;9.73;6.70;;;;;;;8.87;96.46;97336.50;6255869;28;20227;-40
2022/09/25 04:02:18;;;;;;;6.80;6.10;;;;;;;8.88;96.07;97332.06;6256231;28;20729;-41
2022/09/25 04:05:20;;;;;;;7.00;6.20;;;;;;;8.88;96.23;97337.34;6256114;28;20223;-40
2022/09/25 04:08:24;;;;;;;7.93;7.13;;;;;;;8.86;95.80;97337.44;6256321;28;20220;-40
2022/09/25 04:11:27;;;;;;;7.40;6.37;;;;;;;8.85;96.50;97329.66;6259153;28;20239;-40
2022/09/25 04:14:30;;;;;;;6.87;6.17;;;;;;;8.83;96.51;97335.06;6255749;28;20227;-40
2022/09/25 04:17:32;;;;;;;6.67;5.87;;;;;;;8.85;96.07;97332.31;6255824;28;20226;-41
2022/09/25 04:20:34;;;;;;;9.00;6.13;;;;;;;8.88;96.23;97324.19;6255836;28;20235;-40
2022/09/25 04:23:38;;;;;;;9.60;5.90;;;;;;;8.92;96.48;97330.00;6256382;28;20230;-39
2022/09/25 04:26:40;;;;;;;7.23;6.43;;;;;;;8.88;96.85;97338.13;6255589;28;20237;-40
2022/09/25 04:29:42;;;;;;;6.13;5.30;;;;;;;8.86;96.61;97334.81;6256950;28;20244;-41
2022/09/25 04:36:05;;;;;;;6.60;6.00;;;;;;;8.78;97.13;97336.38;6254758;28;20242;-40
2022/09/25 04:39:08;;;;;;;6.30;5.50;;;;;;;8.74;97.19;97338.41;6256227;28;20212;-40
2022/09/25 04:42:10;;;;;;;7.57;6.77;;;;;;;8.71;96.79;97346.53;6254138;28;20576;-41
2022/09/25 04:45:13;;;;;;;6.70;6.00;;;;;;;8.67;97.07;97339.84;6256554;28;20207;-40
2022/09/25 04:48:15;;;;;;;7.33;6.23;;;;;;;8.64;96.87;97355.03;6255169;28;20222;-41
2022/09/25 04:51:17;;;;;;;7.00;6.03;;;;;;;8.61;96.87;97345.56;6255698;28;20222;-40
2022/09/25 04:54:19;;;;;;;11.17;8.33;;;;;;;8.58;96.78;97345.84;6254812;28;20215;-40
2022/09/25 04:57:22;;;;;;;7.60;6.80;;;;;;;8.54;96.90;97348.81;6255073;28;20853;-40
2022/09/25 05:00:44;;;;;;;10.03;6.83;;;;;;;8.54;97.27;97361.94;6255338;28;20731;-40
2022/09/25 05:03:52;;;;;;;7.57;6.40;;;;;;;8.57;96.69;97365.19;6254422;28;20222;-40
2022/09/25 05:06:54;;;;;;;7.73;6.73;;;;;;;8.54;96.80;97365.44;6256340;28;20246;-40
2022/09/25 05:09:57;;;;;;;8.43;7.53;;;;;;;8.58;97.01;97360.78;6254035;28;20724;-40
2022/09/25 05:13:01;;;;;;;9.33;8.00;;;;;;;8.59;96.31;97363.25;6252535;28;20223;-40
2022/09/25 05:16:03;;;;;;;7.57;6.73;;;;;;;8.58;96.50;97352.88;6254072;28;20736;-40
2022/09/25 05:19:05;;;;;;;8.80;6.93;;;;;;;8.61;96.25;97348.19;6268433;28;20257;-40
2022/09/25 05:22:07;;;;;;;8.27;7.13;;;;;;;8.65;96.71;97357.53;6254033;28;20238;-42
2022/09/25 05:25:09;;;;;;;7.13;6.43;;;;;;;8.70;96.28;97350.13;6254024;28;20243;-42
2022/09/25 05:28:11;;;;;;;8.90;8.00;;;;;;;8.82;96.24;97369.38;6253194;28;20234;-41
2022/09/25 05:31:13;;;;;;;8.87;7.77;;;;;;;8.91;96.65;97373.91;6253113;28;20349;-41
2022/09/25 05:34:15;;;;;;;7.80;7.10;;;;;;;8.98;96.55;97367.22;6252388;28;20671;-40
2022/09/25 05:37:17;;;;;;;8.10;7.30;;;;;;;9.06;96.27;97370.09;6253924;28;20718;-39
2022/09/25 05:40:22;;;;;;;8.47;7.03;;;;;;;9.14;96.10;97380.00;6253098;28;20239;-42
2022/09/25 05:43:25;;;;;;;9.73;7.60;;;;;;;9.12;95.53;97380.13;6253383;28;20259;-39
2022/09/25 05:46:27;;;;;;;7.87;7.03;;;;;;;9.18;96.11;97384.09;6254152;28;20231;-40
2022/09/25 05:49:29;;;;;;;7.80;6.30;;;;;;;9.24;95.72;97386.22;6252294;28;20227;-42
2022/09/25 05:52:31;;;;;;;7.70;6.90;;;;;;;9.31;95.49;97376.03;6253073;28;20235;-40
2022/09/25 05:55:33;;;;;;;8.83;7.93;;;;;;;9.37;95.11;97376.38;6253268;28;20663;-40
2022/09/25 05:58:35;;;;;;;9.77;7.87;;;;;;;9.46;95.55;97367.75;6252676;28;20764;-39
2022/09/25 06:01:37;;;;;;;9.00;8.03;;;;;;;9.59;95.23;97367.56;6252817;28;20753;-39
2022/09/25 06:04:39;;;;;;;9.07;8.17;;;;;;;9.70;95.41;97362.25;6253337;28;20319;-39
2022/09/25 06:07:41;;;;;;;8.10;7.30;;;;;;;9.80;94.75;97363.19;6253101;28;20231;-39
2022/09/25 06:10:43;;;;;;;8.47;7.60;;;;;;;9.90;94.69;97352.72;6253307;28;20235;-39
2022/09/25 06:13:48;;;;;;;8.13;7.23;;;;;;;10.02;94.73;97350.84;6253671;28;20247;-40
2022/09/25 06:16:58;;;;;;;8.20;7.40;;;;;;;10.12;94.58;97349.97;6253114;28;20302;-39
2022/09/25 06:20:00;;;;;;;8.47;7.30;;;;;;;10.23;94.08;97357.00;6250285;28;20738;-40
2022/09/25 06:23:02;;;;;;;7.57;6.87;;;;;;;10.34;93.83;97362.22;6237670;28;20220;-39
2022/09/25 06:26:05;;;;;;;8.07;6.63;;;;;;;10.46;93.54;97365.63;6257426;28;20669;-40
2022/09/25 06:29:07;;;;;;;7.23;6.23;;;;;;;10.55;93.39;97376.25;6257906;28;20241;-39
2022/09/25 06:32:09;;;;;;;7.57;6.77;;;;;;;10.65;92.68;97376.28;6257433;28;20324;-40
2022/09/25 06:35:12;;;;;;;6.60;6.00;;;;;;;10.64;92.56;97364.06;6257926;28;20230;-40
2022/09/25 06:38:15;;;;;;;8.83;6.27;;;;;;;10.69;92.57;97365.31;6258506;28;20352;-40
2022/09/25 06:41:17;;;;;;;6.77;6.07;;;;;;;10.80;92.56;97360.94;6257044;28;20329;-40
2022/09/25 06:44:21;;;;;;;5.93;5.43;;;;;;;10.91;92.41;97360.84;6272678;28;20230;-40
2022/09/25 06:47:23;;;;;;;7.00;5.57;;;;;;;10.99;91.92;97364.47;6257085;28;20241;-41
2022/09/25 06:50:35;;;;;;;6.73;5.20;;;;;;;11.09;91.75;97359.22;6257494;28;20807;-40
2022/09/25 06:53:37;;;;;;;6.87;6.17;;;;;;;11.15;91.75;97344.66;6256981;28;20781;-40
2022/09/25 06:56:39;;;;;;;6.47;5.87;;;;;;;11.27;91.35;97340.94;6256662;28;20605;-39
2022/09/25 06:59:41;;;;;;;7.97;5.70;;;;;;;11.37;90.81;97329.44;6256772;28;20688;-41
2022/09/25 07:06:07;;;;;;;7.50;6.10;;;;;;;11.66;89.74;97333.91;6255560;28;20587;-41
2022/09/25 07:09:09;;;;;;;7.77;5.60;;;;;;;11.77;89.49;97329.38;6255868;28;20229;-40
2022/09/25 07:12:11;;;;;;;7.63;5.70;;;;;;;11.89;88.94;97323.91;6257426;28;20211;-40
2022/09/25 07:15:14;;;;;;;6.17;5.57;;;;;;;11.96;88.88;97328.53;6256543;28;20289;-40
2022/09/25 07:18:16;;;;;;;6.67;5.63;;;;;;;12.06;88.60;97321.41;6255582;28;20218;-40
2022/09/25 07:21:20;;;;;;;5.70;5.13;;;;;;;12.15;88.34;97319.72;6256460;28;20677;-40
2022/09/25 07:24:22;;;;;;;7.77;6.80;;;;;;;12.22;88.03;97322.63;6255887;28;20663;-39
2022/09/25 07:27:24;;;;;;;8.20;7.13;;;;;;;12.30;87.47;97307.69;6257435;28;20273;-40
2022/09/25 07:30:28;;;;;;;6.93;6.23;;;;;;;12.43;86.79;97302.09;6255892;28;20243;-40
2022/09/25 07:33:31;;;;;;;7.20;6.50;;;;;;;12.57;86.60;97323.66;6255622;28;20242;-40
2022/09/25 07:36:34;;;;;;;6.67;5.50;;;;;;;12.73;85.82;97338.94;6256444;28;20729;-40
2022/09/25 07:39:36;;;;;;;7.10;5.87;;;;;;;12.84;85.20;97329.97;6256374;28;20333;-40
2022/09/25 07:42:38;;;;;;;6.80;6.00;;;;;;;12.97;84.81;97333.13;6255647;28;20235;-40
2022/09/25 07:45:48;;;;;;;7.47;6.63;;;;;;;13.07;84.11;97336.56;6256296;28;20322;-40
2022/09/25 07:48:50;;;;;;;6.03;5.50;;;;;;;13.16;83.83;97342.81;6255746;28;20231;-40
2022/09/25 07:51:52;;;;;;;6.33;5.73;;;;;;;13.21;83.65;97337.91;6256668;28;20227;-39
2022/09/25 07:54:54;;;;;;;6.70;6.00;;;;;;;13.27;83.53;97340.81;6255037;28;20235;-40
2022/09/25 07:57:57;;;;;;;6.47;5.40;;;;;;;13.39;82.98;97343.22;6255650;28;20237;-39
2022/09/25 08:01:00;;;;;;;6.33;5.63;;;;;;;-144.22;100.00;60274.75;6255202;28;20239;-40
2022/09/25 08:04:02;;;;;;;8.53;6.73;;;;;;;-144.22;100.00;60274.75;6256174;28;20246;-40
2022/09/25 08:07:05;;;;;;;6.13;5.63;;;;;;;-144.22;100.00;60274.75;6255769;28;20716;-40
2022/09/25 08:10:07;;;;;;;8.17;7.00;;;;;;;-144.22;100.00;60274.75;6255702;28;20223;-41
2022/09/25 08:13:09;;;;;;;9.03;6.73;;;;;;;-144.22;100.00;60274.75;6255114;28;20669;-41
2022/09/25 08:16:16;;;;;;;7.93;7.13;;;;;;;-144.22;100.00;60274.75;6254435;28;20373;-42
2022/09/25 08:19:22;;;;;;;8.97;7.97;;;;;;;-144.22;100.00;60274.75;6255656;28;20238;-40
2022/09/25 08:22:26;;;;;;;9.43;8.07;;;;;;;-144.22;100.00;60274.75;6254460;28;20239;-40
2022/09/25 08:25:28;;;;;;;12.80;9.07;;;;;;;-144.22;100.00;60274.75;6254570;28;20234;-40
2022/09/25 08:28:30;;;;;;;9.83;8.40;;;;;;;-144.22;100.00;60274.75;6254878;28;20317;-40
2022/09/25 08:31:33;;;;;;;9.97;8.93;;;;;;;-144.22;100.00;60274.75;6254797;28;20300;-41
2022/09/25 08:34:35;;;;;;;9.50;7.63;;;;;;;-144.22;100.00;60274.75;6255765;28;20237;-40
2022/09/25 08:37:43;;;;;;;9.17;7.90;;;;;;;-144.22;100.00;60274.75;6253311;28;20276;-40
2022/09/25 08:40:54;;;;;;;9.40;7.30;;;;;;;13.43;100.00;60274.75;6259248;28;20330;-40
2022/09/25 08:44:04;;;;;;;8.27;7.47;;;;;;;-144.22;100.00;60274.75;6254718;28;20246;-39
2022/09/25 08:50:41;;;;;;;7.47;6.77;;;;;;;-144.22;100.00;60274.75;6254435;28;20337;-40
2022/09/25 08:53:44;;;;;;;7.50;6.20;;;;;;;13.69;100.00;60274.75;6252991;28;20308;-41
2022/09/25 08:56:50;;;;;;;9.60;7.13;;;;;;;-144.22;100.00;60274.75;6251210;28;20322;-41
2022/09/25 08:59:57;;;;;;;6.80;6.20;;;;;;;16.55;100.00;60274.75;6254095;28;20227;-43
2022/09/25 09:03:03;;;;;;;8.00;6.93;;;;;;;-144.22;100.00;60274.75;6253447;28;20223;-41
2022/09/25 09:06:11;;;;;;;9.13;6.23;;;;;;;-144.22;100.00;60274.75;6253528;28;20230;-41
2022/09/25 09:10:08;;;;;;;7.10;6.40;;;;;;;16.55;100.00;60274.75;6253308;28;20215;-41
2022/09/25 09:13:31;;;;;;;8.13;6.00;;;;;;;-144.22;100.00;60274.75;6210069;28;20614;-40
2022/09/25 09:16:59;;;;;;;6.70;5.53;;;;;;;16.55;100.00;60274.75;6253701;28;20566;-40
2022/09/25 09:20:14;;;;;;;7.33;6.10;;;;;;;-144.22;100.00;60274.75;6247134;28;20300;-41
2022/09/25 09:23:19;;;;;;;6.37;5.77;;;;;;;16.55;100.00;60274.75;6240161;28;20219;-41
2022/09/25 09:26:30;;;;;;;6.87;6.17;;;;;;;-144.22;100.00;60274.75;6255093;28;20227;-42
2022/09/25 09:29:58;;;;;;;7.83;6.30;;;;;;;-144.22;100.00;60274.75;6252143;28;20777;-41
2022/09/25 09:33:40;;;;;;;8.53;6.80;;;;;;;-144.22;100.00;60274.75;6253195;28;20709;-41
2022/09/25 09:36:51;;;;;;;7.47;6.77;;;;;;;188.01;100.00;60274.75;6252529;28;20337;-41
2022/09/25 09:40:19;;;;;;;7.47;6.73;;;;;;;-144.22;100.00;60274.75;6254129;28;20260;-42
2022/09/25 09:43:35;;;;;;;8.63;6.57;;;;;;;14.11;100.00;60274.75;6254813;28;20219;-41
2022/09/25 09:47:08;;;;;;;7.23;6.40;;;;;;;-144.22;100.00;60274.75;6252531;28;20239;-41
2022/09/25 09:50:31;;;;;;;7.90;7.10;;;;;;;-144.22;100.00;60274.75;6250275;28;20219;-41
2022/09/25 09:53:39;;;;;;;8.57;7.60;;;;;;;188.01;100.00;60274.75;6252048;28;20285;-41
2022/09/25 09:56:45;;;;;;;10.77;8.43;;;;;;;-144.22;100.00;60274.75;6252503;28;20235;-43
2022/09/25 10:00:13;;;;;;;7.83;6.67;;;;;;;16.55;100.00;60274.75;6252063;28;20237;-45
2022/09/25 10:03:27;;;;;;;8.43;7.40;;;;;;;-144.22;100.00;60274.75;6252036;28;20237;-40
2022/09/25 10:06:32;;;;;;;8.93;7.60;;;;;;;21.74;100.00;60274.75;6252276;28;20451;-40
2022/09/25 10:09:36;;;;;;;8.73;7.83;;;;;;;-144.22;100.00;60274.75;6257031;28;20242;-40
2022/09/25 10:12:39;;;;;;;8.70;7.80;;;;;;;21.74;100.00;60274.75;6257827;28;20357;-42
2022/09/25 10:15:50;;;;;;;7.50;6.80;;;;;;;-144.22;100.00;60274.75;6251968;28;20223;-41
2022/09/25 10:19:10;;;;;;;9.57;7.20;;;;;;;-144.22;100.00;60274.75;6236494;28;20725;-41
2022/09/25 10:22:19;;;;;;;8.17;6.87;;;;;;;-144.22;100.00;60274.75;6252777;28;20239;-40
2022/09/25 10:25:37;;;;;;;10.87;8.53;;;;;;;-144.22;100.00;60274.75;6252696;28;20235;-41
2022/09/25 10:28:39;;;;;;;7.73;6.93;;;;;;;13.96;100.00;60274.75;6253292;28;20624;-41
2022/09/25 10:31:41;;;;;;;7.47;6.70;;;;;;;-144.22;100.00;60274.75;6252671;28;20698;-40
2022/09/25 10:34:51;;;;;;;8.47;7.47;;;;;;;-144.22;100.00;60274.75;6252025;28;20837;-40
2022/09/25 10:37:56;;;;;;;8.60;7.53;;;;;;;-144.22;100.00;60274.75;6252214;28;20633;-41
2022/09/25 10:41:03;;;;;;;7.20;6.47;;;;;;;21.74;100.00;60274.75;6253134;28;20767;-40
2022/09/25 10:44:20;;;;;;;10.73;8.10;;;;;;;-144.22;100.00;60274.75;6250512;28;20239;-42
2022/09/25 10:50:43;;;;;;;7.40;6.70;;;;;;;-144.22;100.00;60274.75;6252450;28;20271;-41
2022/09/25 10:53:49;;;;;;;6.90;6.30;;;;;;;188.01;100.00;60274.75;6250565;28;20231;-41
2022/09/25 10:56:52;;;;;;;6.27;5.67;;;;;;;188.01;100.00;60274.75;6252433;28;20231;-40
2022/09/25 10:59:54;;;;;;;6.03;5.43;;;;;;;-144.22;100.00;60274.75;6252169;28;20269;-40
2022/09/25 11:03:00;;;;;;;6.67;6.00;;;;;;;21.74;100.00;60274.75;6252002;28;20231;-40
2022/09/25 11:06:07;;;;;;;5.97;5.37;;;;;;;-144.22;100.00;60274.75;6253853;28;20250;-41
2022/09/25 11:09:16;;;;;;;6.43;5.43;;;;;;;188.01;100.00;60274.75;6256354;28;20230;-40
2022/09/25 11:12:24;;;;;;;7.37;6.57;;;;;;;188.01;100.00;60274.75;6254943;28;20477;-40
2022/09/25 11:15:26;;;;;;;7.20;6.43;;;;;;;-144.22;100.00;60274.75;6254633;28;20231;-42
2022/09/25 11:18:39;;;;;;;6.70;6.00;;;;;;;188.01;100.00;60274.75;6255197;28;20723;-41
2022/09/25 11:21:48;;;;;;;7.40;5.43;;;;;;;-144.22;100.00;60274.75;6256718;28;20600;-41
2022/09/25 11:25:14;;;;;;;6.60;6.00;;;;;;;-144.22;100.00;60274.75;6256245;28;20235;-40
2022/09/25 11:28:47;;;;;;;7.67;6.73;;;;;;;14.81;100.00;60274.75;6256293;28;20236;-40
2022/09/25 11:32:33;;;;;;;8.73;6.43;;;;;;;-144.22;100.00;60274.75;6255869;28;20246;-40
2022/09/25 11:35:44;;;;;;;6.37;5.77;;;;;;;15.17;100.00;60274.75;6227760;28;20241;-41
2022/09/25 11:42:20;;;;;;;6.60;6.00;;;;;;;-144.22;100.00;60274.75;6227737;28;20236;-40
2022/09/25 11:45:22;;;;;;;7.23;6.50;;;;;;;15.40;100.00;60274.75;6226764;28;20591;-42
2022/09/25 11:48:45;;;;;;;7.93;5.90;;;;;;;-144.22;100.00;60274.75;6227778;28;20231;-40
2022/09/25 11:52:08;;;;;;;9.80;7.23;;;;;;;-144.22;100.00;60274.75;6227522;28;20258;-42
2022/09/25 11:55:22;;;;;;;7.60;6.80;;;;;;;15.49;100.00;60274.75;6227729;28;20692;-40
2022/09/25 11:59:06;;;;;;;8.20;6.87;;;;;;;-144.22;100.00;60274.75;6227593;28;20228;-41
2022/09/25 12:02:31;;;;;;;7.60;6.07;;;;;;;15.21;100.00;60274.75;6227641;28;20731;-40
2022/09/25 12:06:01;;;;;;;9.57;6.73;;;;;;;-144.22;100.00;60274.75;6198519;28;20783;-40
2022/09/25 12:09:30;;;;;;;7.03;6.33;;;;;;;15.09;100.00;60274.75;6247158;28;20410;-40
2022/09/25 12:13:01;;;;;;;7.80;6.87;;;;;;;-144.22;100.00;60274.75;6267313;28;20562;-40
2022/09/25 12:16:31;;;;;;;6.93;6.30;;;;;;;14.85;100.00;60274.75;6252070;28;20231;-40
2022/09/25 12:20:10;;;;;;;10.10;8.17;;;;;;;-144.22;100.00;60274.75;6255834;28;20720;-40
2022/09/25 12:23:42;;;;;;;9.23;8.07;;;;;;;-144.22;100.00;60274.75;6255413;28;20246;-40
2022/09/25 12:27:13;;;;;;;8.20;7.33;;;;;;;14.73;100.00;60274.75;6256325;28;20231;-40
2022/09/25 12:30:19;;;;;;;10.00;7.93;;;;;;;-144.22;100.00;60274.75;6255203;28;20230;-40
2022/09/25 12:33:31;;;;;;;8.73;7.83;;;;;;;15.21;100.00;60274.75;6255711;28;20235;-40
2022/09/25 12:36:46;;;;;;;10.43;8.70;;;;;;;15.23;100.00;60274.75;6254750;28;20234;-40
2022/09/25 12:39:56;;;;;;;8.60;7.77;;;;;;;-144.22;100.00;60274.75;6255119;28;20673;-40
2022/09/25 12:43:06;;;;;;;10.10;9.10;;;;;;;-144.22;100.00;60274.75;6254178;28;20711;-40
2022/09/25 12:46:08;;;;;;;10.93;9.80;;;;;;;-144.22;100.00;60274.75;6255436;28;20657;-40
2022/09/25 12:49:25;;;;;;;10.17;9.13;;;;;;;-144.22;100.00;60274.75;6254355;28;20714;-40
2022/09/25 12:52:34;;;;;;;11.17;10.07;;;;;;;-144.22;100.00;60274.75;6255789;28;20798;-40
2022/09/25 12:55:49;;;;;;;10.03;9.13;;;;;;;-144.22;100.00;60274.75;6254706;28;20570;-42
2022/09/25 12:59:04;;;;;;;10.03;9.00;;;;;;;-144.22;100.00;60274.75;6254685;28;20307;-40
2022/09/25 13:02:30;;;;;;;11.93;10.57;;;;;;;-144.22;100.00;60274.75;6255138;28;20639;-40
2022/09/25 13:05:36;;;;;;;11.77;10.57;;;;;;;-144.22;100.00;60274.75;6254271;28;20235;-40
2022/09/25 13:08:42;;;;;;;10.57;9.17;;;;;;;-144.22;100.00;60274.75;6254950;28;20235;-40
2022/09/25 13:12:02;;;;;;;11.57;10.03;;;;;;;-144.22;100.00;60274.75;6258976;28;20318;-40
2022/09/25 13:15:06;;;;;;;11.83;10.53;;;;;;;-144.22;100.00;60274.75;6253704;28;20231;-40
2022/09/25 13:18:16;;;;;;;10.33;9.33;;;;;;;18.75;100.00;60274.75;6254664;28;20340;-40
2022/09/25 13:21:29;;;;;;;9.00;8.07;;;;;;;-144.22;100.00;60274.75;6254373;28;20231;-40
2022/09/25 13:25:04;;;;;;;9.60;8.60;;;;;;;-144.22;100.00;60274.75;6253938;28;20671;-40
2022/09/25 13:28:08;;;;;;;9.83;8.80;;;;;;;21.74;100.00;60274.75;6252487;28;20314;-39
2022/09/25 13:31:22;;;;;;;8.77;7.93;;;;;;;-144.22;100.00;60274.75;6253598;28;20231;-40
2022/09/25 13:34:25;;;;;;;8.80;7.90;;;;;;;-144.22;100.00;60274.75;6257169;28;20651;-41
2022/09/25 13:37:33;;;;;;;8.50;7.60;;;;;;;20.40;100.00;60274.75;6254014;28;20246;-40
2022/09/25 13:40:44;;;;;;;8.50;7.73;;;;;;;-144.22;100.00;60274.75;6254140;28;20235;-40
2022/09/25 13:43:48;;;;;;;9.87;8.77;;;;;;;-144.22;100.00;60274.75;6275683;28;20297;-40
2022/09/25 13:46:50;;;;;;;8.90;6.90;;;;;;;17.52;100.00;60274.75;6256004;28;20241;-40
2022/09/25 13:50:10;;;;;;;8.13;7.33;;;;;;;17.85;100.00;60274.75;6253401;28;20239;-40
2022/09/25 13:53:21;;;;;;;7.97;7.17;;;;;;;-144.22;100.00;60274.75;6253944;28;20230;-40
2022/09/25 13:56:25;;;;;;;9.57;8.57;;;;;;;-144.22;100.00;60274.75;6253174;28;20733;-40
2022/09/25 13:59:37;;;;;;;8.70;7.90;;;;;;;16.71;100.00;60274.75;6254306;28;20230;-40
2022/09/25 14:02:43;;;;;;;8.87;7.97;;;;;;;-144.22;100.00;60274.75;6254273;28;20242;-39
2022/09/25 14:05:44;;;;;;;9.50;8.60;;;;;;;16.04;67.28;97160.53;6253602;28;20317;-39
2022/09/25 14:08:48;;;;;;;10.63;9.50;;;;;;;15.79;68.07;97159.75;6253514;28;20223;-39
2022/09/25 14:12:02;;;;;;;9.27;7.90;;;;;;;15.78;68.70;97158.09;6252722;28;20227;-39
2022/09/25 14:15:12;;;;;;;8.00;7.20;;;;;;;15.74;68.73;97153.28;6253278;28;20215;-40
2022/09/25 14:18:35;;;;;;;8.53;7.73;;;;;;;15.65;68.98;97159.63;6253112;28;20242;-40
2022/09/25 14:21:37;;;;;;;9.90;8.20;;;;;;;15.53;69.61;97161.75;6253261;28;20233;-40
2022/09/25 14:24:44;;;;;;;9.80;8.80;;;;;;;15.47;69.91;97157.91;6252704;28;20360;-40
2022/09/25 14:27:51;;;;;;;9.87;8.87;;;;;;;15.27;70.64;97156.56;6252345;28;20227;-40
2022/09/25 14:31:22;;;;;;;9.53;8.63;;;;;;;15.25;70.84;97152.44;6258267;28;20251;-41
2022/09/25 14:34:36;;;;;;;8.90;8.00;;;;;;;15.28;70.87;97142.28;6252289;28;20705;-40
2022/09/25 14:38:07;;;;;;;9.43;8.53;;;;;;;15.36;70.88;97144.13;6252820;28;20609;-40
2022/09/25 14:41:57;;;;;;;8.90;8.03;;;;;;;15.40;70.86;97140.97;6257410;28;20236;-40
2022/09/25 14:45:17;;;;;;;10.50;7.67;;;;;;;15.69;70.14;97126.34;6235386;28;20551;-40
2022/09/25 14:48:26;;;;;;;8.60;7.80;;;;;;;15.49;70.49;97131.97;6229243;28;20216;-40
2022/09/25 14:51:43;;;;;;;9.60;8.73;;;;;;;15.29;70.85;97132.47;6229233;28;21820;-40
2022/09/25 14:54:47;;;;;;;8.37;7.53;;;;;;;15.00;71.95;97130.28;6229537;28;20650;-40
2022/09/25 14:57:50;;;;;;;6.97;6.37;;;;;;;15.03;72.26;97127.31;6229122;28;20231;-40
2022/09/25 15:00:57;;;;;;;9.53;8.63;;;;;;;14.94;72.53;97123.81;6230176;28;20885;-39
2022/09/25 15:04:02;;;;;;;10.20;9.20;;;;;;;14.69;73.80;97122.09;6228902;28;20382;-39
2022/09/25 15:07:07;;;;;;;9.33;8.43;;;;;;;14.61;74.41;97119.44;6230111;28;20698;-40